createdAt,value
2018-04-18T00:00:56.656Z,3.65
2018-04-18T00:03:24.061Z,3.35
2018-04-18T00:05:51.552Z,2.58
2018-04-18T00:08:19.017Z,3.10
2018-04-18T00:10:46.471Z,3.35
2018-04-18T00:13:13.895Z,3.42
2018-04-18T00:15:41.319Z,3.35
2018-04-18T00:18:08.718Z,2.20
2018-04-18T00:20:39.225Z,2.65
2018-04-18T00:23:06.688Z,2.50
2018-04-18T00:25:34.087Z,3.70
2018-04-18T00:28:01.544Z,2.55
2018-04-18T00:30:28.947Z,2.95
2018-04-18T00:32:56.394Z,2.33
2018-04-18T00:35:23.833Z,3.15
2018-04-18T00:37:51.266Z,2.83
2018-04-18T00:40:18.752Z,2.90
2018-04-18T00:42:46.146Z,4.18
2018-04-18T00:45:13.580Z,3.33
2018-04-18T00:47:41.048Z,2.90
2018-04-18T00:50:08.467Z,3.67
2018-04-18T00:52:35.914Z,2.83
2018-04-18T00:55:03.352Z,2.97
2018-04-18T00:57:34.004Z,3.50
2018-04-18T01:00:01.556Z,3.40
2018-04-18T01:02:29.053Z,3.03
2018-04-18T01:04:56.521Z,3.03
2018-04-18T01:07:24.044Z,3.28
2018-04-18T01:09:51.504Z,2.83
2018-04-18T01:12:18.950Z,3.03
2018-04-18T01:14:46.382Z,2.95
2018-04-18T01:17:13.815Z,3.62
2018-04-18T01:19:41.235Z,2.40
2018-04-18T01:22:08.640Z,3.05
2018-04-18T01:24:36.033Z,3.42
2018-04-18T01:27:03.486Z,3.00
2018-04-18T01:29:30.969Z,2.90
2018-04-18T01:31:58.451Z,3.12
2018-04-18T01:34:25.854Z,3.87
2018-04-18T01:36:53.328Z,4.18
2018-04-18T01:39:20.751Z,3.70
2018-04-18T01:41:48.160Z,2.53
2018-04-18T01:44:15.649Z,3.85
2018-04-18T01:46:43.055Z,3.45
2018-04-18T01:49:22.395Z,3.25
2018-04-18T01:51:49.986Z,3.17
2018-04-18T01:54:17.374Z,2.87
2018-04-18T01:56:48.900Z,4.20
2018-04-18T01:59:16.496Z,3.53
2018-04-18T02:01:43.924Z,3.05
2018-04-18T02:04:11.349Z,3.03
2018-04-18T02:06:38.773Z,2.80
2018-04-18T02:09:06.221Z,3.33
2018-04-18T02:11:33.626Z,2.90
2018-04-18T02:14:01.104Z,3.42
2018-04-18T02:16:28.543Z,3.55
2018-04-18T02:18:56.058Z,2.92
2018-04-18T02:21:23.508Z,4.28
2018-04-18T02:23:53.943Z,2.80
2018-04-18T02:26:21.398Z,3.15
2018-04-18T02:28:48.873Z,3.60
2018-04-18T02:31:16.288Z,3.42
2018-04-18T02:33:43.696Z,3.95
2018-04-18T02:36:11.082Z,3.22
2018-04-18T02:38:39.265Z,3.65
2018-04-18T02:41:06.694Z,2.83
2018-04-18T02:43:34.151Z,2.87
2018-04-18T02:46:01.541Z,3.35
2018-04-18T02:48:28.967Z,2.95
2018-04-18T02:50:59.697Z,3.47
2018-04-18T02:53:27.130Z,2.85
2018-04-18T02:55:54.590Z,3.78
2018-04-18T02:58:22.076Z,3.62
2018-04-18T03:00:49.547Z,4.30
2018-04-18T03:03:16.991Z,3.00
2018-04-18T03:05:44.473Z,3.92
2018-04-18T03:08:11.895Z,4.72
2018-04-18T03:10:39.692Z,5.30
2018-04-18T03:13:07.206Z,4.43
2018-04-18T03:15:34.595Z,3.80
2018-04-18T03:18:02.027Z,4.15
2018-04-18T03:20:29.493Z,3.75
2018-04-18T03:22:56.911Z,3.55
2018-04-18T03:25:27.780Z,3.60
2018-04-18T03:27:55.236Z,2.87
2018-04-18T03:30:22.659Z,4.10
2018-04-18T03:32:50.094Z,3.30
2018-04-18T03:35:17.575Z,4.32
2018-04-18T03:37:45.038Z,2.97
2018-04-18T03:40:13.191Z,3.20
2018-04-18T03:42:40.617Z,3.10
2018-04-18T03:45:08.396Z,2.97
2018-04-18T03:47:35.860Z,3.62
2018-04-18T03:50:03.300Z,4.60
2018-04-18T03:52:30.772Z,3.53
2018-04-18T03:54:58.172Z,3.75
2018-04-18T03:57:25.592Z,4.03
2018-04-18T03:59:53.060Z,4.07
2018-04-18T04:02:20.534Z,3.67
2018-04-18T04:04:47.945Z,3.95
2018-04-18T04:07:15.409Z,3.33
2018-04-18T04:09:42.872Z,2.92
2018-04-18T04:12:10.307Z,3.00
2018-04-18T04:14:38.255Z,3.80
2018-04-18T04:17:17.337Z,3.20
2018-04-18T04:19:56.484Z,3.20
2018-04-18T04:22:38.793Z,2.67
2018-04-18T04:25:06.354Z,2.85
2018-04-18T04:27:33.812Z,2.95
2018-04-18T04:30:01.253Z,2.90
2018-04-18T04:32:28.727Z,2.85
2018-04-18T04:34:56.126Z,4.10
2018-04-18T04:37:23.590Z,3.35
2018-04-18T04:39:51.024Z,5.05
2018-04-18T04:42:18.455Z,4.35
2018-04-18T04:44:45.883Z,4.37
2018-04-18T04:47:13.282Z,3.92
2018-04-18T04:49:40.740Z,4.07
2018-04-18T04:52:08.163Z,3.30
2018-04-18T04:54:38.647Z,4.53
2018-04-18T04:57:06.078Z,3.60
2018-04-18T04:59:33.622Z,5.93
2018-04-18T05:02:01.061Z,4.00
2018-04-18T05:04:29.349Z,3.50
2018-04-18T05:06:56.839Z,4.35
2018-04-18T05:09:24.263Z,4.00
2018-04-18T05:11:51.743Z,4.60
2018-04-18T05:14:19.160Z,4.72
2018-04-18T05:16:46.586Z,4.60
2018-04-18T05:19:14.060Z,4.65
2018-04-18T05:21:42.252Z,4.35
2018-04-18T05:24:09.725Z,3.50
2018-04-18T05:26:37.155Z,3.92
2018-04-18T05:29:07.945Z,6.07
2018-04-18T05:31:35.406Z,3.90
2018-04-18T05:34:02.948Z,3.85
2018-04-18T05:36:30.350Z,6.78
2018-04-18T05:38:57.804Z,5.40
2018-04-18T05:41:25.199Z,5.28
2018-04-18T05:43:52.610Z,6.07
2018-04-18T05:46:20.155Z,3.72
2018-04-18T05:48:47.640Z,4.95
2018-04-18T05:51:15.122Z,4.45
2018-04-18T05:53:42.613Z,4.45
2018-04-18T05:56:10.073Z,4.93
2018-04-18T05:58:40.691Z,4.00
2018-04-18T06:01:08.100Z,5.90
2018-04-18T06:03:35.508Z,6.07
2018-04-18T06:06:02.976Z,7.10
2018-04-18T06:08:30.442Z,5.82
2018-04-18T06:10:57.843Z,5.70
2018-04-18T06:13:25.276Z,5.15
2018-04-18T06:15:52.708Z,7.62
2018-04-18T06:18:20.394Z,5.10
2018-04-18T06:20:51.111Z,6.10
2018-04-18T06:23:18.581Z,12.68
2018-04-18T06:25:45.978Z,6.28
2018-04-18T06:28:13.503Z,12.05
2018-04-18T06:30:40.940Z,6.57
2018-04-18T06:33:08.378Z,9.13
2018-04-18T06:35:35.808Z,5.85
2018-04-18T06:38:03.241Z,5.12
2018-04-18T06:40:30.637Z,6.22
2018-04-18T06:42:58.099Z,7.00
2018-04-18T06:45:25.517Z,8.27
2018-04-18T06:47:53.031Z,8.07
2018-04-18T06:50:21.387Z,7.62
2018-04-18T06:52:51.907Z,6.55
2018-04-18T06:55:19.352Z,8.13
2018-04-18T06:57:46.765Z,6.55
2018-04-18T07:00:14.254Z,7.85
2018-04-18T07:02:41.735Z,7.65
2018-04-18T07:05:09.133Z,7.32
2018-04-18T07:07:36.550Z,6.95
2018-04-18T07:10:03.983Z,8.75
2018-04-18T07:12:31.462Z,9.75
2018-04-18T07:14:58.917Z,8.00
2018-04-18T07:17:26.409Z,8.60
2018-04-18T07:19:53.874Z,7.12
2018-04-18T07:22:24.590Z,5.72
2018-04-18T07:24:52.048Z,6.53
2018-04-18T07:27:19.609Z,4.90
2018-04-18T07:29:47.094Z,4.85
2018-04-18T07:32:14.568Z,5.53
2018-04-18T07:34:41.977Z,4.47
2018-04-18T07:37:09.445Z,5.28
2018-04-18T07:39:36.884Z,4.82
2018-04-18T07:42:04.303Z,4.20
2018-04-18T07:44:31.783Z,6.50
2018-04-18T07:46:59.265Z,4.57
2018-04-18T07:49:26.727Z,5.37
2018-04-18T07:51:57.242Z,5.45
2018-04-18T07:54:24.699Z,6.40
2018-04-18T07:56:52.261Z,5.80
2018-04-18T07:59:19.769Z,5.00
2018-04-18T08:01:47.267Z,7.90
2018-04-18T08:04:14.763Z,5.90
2018-04-18T08:06:42.220Z,5.62
2018-04-18T08:09:09.674Z,5.47
2018-04-18T08:11:37.123Z,5.95
2018-04-18T08:14:04.537Z,6.40
2018-04-18T08:16:31.974Z,6.35
2018-04-18T08:18:59.448Z,5.93
2018-04-18T08:21:27.054Z,6.25
2018-04-18T08:23:57.608Z,7.22
2018-04-18T08:26:25.208Z,10.57
2018-04-18T08:28:52.636Z,5.28
2018-04-18T08:31:20.134Z,8.73
2018-04-18T08:33:47.712Z,10.68
2018-04-18T08:36:15.157Z,8.27
2018-04-18T08:38:42.625Z,25.90
2018-04-18T08:41:13.620Z,14.50
2018-04-18T08:43:41.059Z,5.85
2018-04-18T08:46:08.483Z,7.40
2018-04-18T08:48:35.930Z,5.45
2018-04-18T08:51:03.371Z,4.60
2018-04-18T08:53:30.795Z,5.40
2018-04-18T08:55:58.267Z,8.05
2018-04-18T08:58:25.662Z,4.03
2018-04-18T09:00:56.435Z,4.65
2018-04-18T09:03:23.856Z,3.60
2018-04-18T09:05:51.433Z,3.55
2018-04-18T09:08:18.972Z,3.78
2018-04-18T09:10:46.489Z,4.47
2018-04-18T09:13:13.920Z,4.00
2018-04-18T09:15:41.366Z,3.72
2018-04-18T09:18:08.884Z,4.05
2018-04-18T09:20:36.354Z,3.00
2018-04-18T09:23:06.912Z,3.92
2018-04-18T09:25:34.320Z,6.30
2018-04-18T09:28:01.752Z,4.28
2018-04-18T09:30:29.144Z,4.18
2018-04-18T09:32:56.621Z,6.30
2018-04-18T09:35:24.080Z,4.62
2018-04-18T09:37:51.510Z,4.65
2018-04-18T09:40:18.960Z,7.28
2018-04-18T09:42:46.435Z,4.20
2018-04-18T09:45:13.870Z,4.70
2018-04-18T09:47:41.256Z,5.55
2018-04-18T09:50:08.801Z,4.57
2018-04-18T09:52:39.636Z,5.62
2018-04-18T09:55:07.091Z,5.90
2018-04-18T09:57:34.580Z,4.68
2018-04-18T10:00:02.059Z,4.70
2018-04-18T10:02:29.587Z,5.55
2018-04-18T10:05:11.645Z,4.07
2018-04-18T10:07:42.190Z,4.40
2018-04-18T10:10:09.644Z,5.30
2018-04-18T10:12:37.113Z,5.10
2018-04-18T10:15:04.596Z,5.20
2018-04-18T10:17:32.064Z,7.20
2018-04-18T10:19:59.465Z,4.55
2018-04-18T10:22:26.856Z,4.50
2018-04-18T10:24:54.274Z,6.45
2018-04-18T10:27:21.800Z,6.28
2018-04-18T10:29:52.572Z,6.82
2018-04-18T10:32:20.053Z,5.95
2018-04-18T10:34:47.464Z,6.65
2018-04-18T10:37:14.897Z,7.50
2018-04-18T10:39:42.376Z,8.13
2018-04-18T10:42:09.768Z,5.12
2018-04-18T10:44:37.232Z,4.95
2018-04-18T10:47:04.680Z,6.25
2018-04-18T10:49:32.111Z,5.45
2018-04-18T10:51:59.824Z,5.05
2018-04-18T10:54:30.455Z,4.72
2018-04-18T10:56:57.876Z,4.25
2018-04-18T10:59:25.329Z,3.75
2018-04-18T11:01:52.737Z,5.78
2018-04-18T11:04:20.147Z,5.05
2018-04-18T11:06:47.543Z,5.40
2018-04-18T11:09:14.976Z,5.30
2018-04-18T11:11:42.544Z,5.60
2018-04-18T11:14:10.231Z,6.43
2018-04-18T11:16:37.716Z,6.28
2018-04-18T11:19:05.885Z,4.57
2018-04-18T11:21:33.426Z,4.68
2018-04-18T11:24:00.879Z,4.87
2018-04-18T11:26:28.350Z,6.10
2018-04-18T11:28:55.800Z,6.80
2018-04-18T11:31:23.251Z,6.10
2018-04-18T11:33:50.703Z,4.37
2018-04-18T11:38:51.964Z,7.30
2018-04-18T11:41:19.405Z,4.37
2018-04-18T11:43:46.804Z,3.20
2018-04-18T11:46:14.203Z,4.72
2018-04-18T11:48:41.736Z,4.53
2018-04-18T11:51:09.231Z,5.10
2018-04-18T11:53:36.624Z,4.20
2018-04-18T11:56:04.057Z,6.35
2018-04-18T11:58:31.595Z,5.55
2018-04-18T12:00:59.081Z,4.82
2018-04-18T12:03:26.484Z,3.47
2018-04-18T12:05:54.011Z,3.75
2018-04-18T12:08:21.479Z,4.82
2018-04-18T12:10:48.914Z,5.10
2018-04-18T12:13:16.446Z,4.93
2018-04-18T12:15:43.927Z,4.10
2018-04-18T12:18:11.372Z,4.35
2018-04-18T12:20:38.847Z,3.58
2018-04-18T12:23:06.399Z,5.32
2018-04-18T12:25:37.245Z,3.60
2018-04-18T12:28:04.805Z,2.65
2018-04-18T12:30:32.246Z,3.45
2018-04-18T12:33:00.219Z,4.37
2018-04-18T12:35:27.688Z,3.83
2018-04-18T12:37:55.123Z,3.80
2018-04-18T12:40:22.564Z,3.70
2018-04-18T12:42:49.956Z,3.33
2018-04-18T12:45:17.434Z,3.72
2018-04-18T12:47:44.905Z,2.40
2018-04-18T12:50:12.352Z,3.30
2018-04-18T12:52:43.013Z,3.42
2018-04-18T12:55:10.458Z,2.47
2018-04-18T12:57:37.932Z,3.47
2018-04-18T13:00:05.983Z,3.60
2018-04-18T13:02:33.399Z,3.45
2018-04-18T13:05:00.826Z,2.90
2018-04-18T13:07:28.255Z,4.00
2018-04-18T13:09:58.852Z,3.90
2018-04-18T13:12:26.243Z,4.00
2018-04-18T13:14:53.648Z,4.10
2018-04-18T13:17:21.208Z,3.12
2018-04-18T13:19:48.673Z,3.83
2018-04-18T13:22:16.149Z,4.30
2018-04-18T13:24:43.576Z,4.40
2018-04-18T13:27:14.194Z,4.05
2018-04-18T13:29:41.575Z,3.55
2018-04-18T13:32:09.050Z,3.75
2018-04-18T13:34:36.456Z,3.20
2018-04-18T13:37:03.865Z,4.18
2018-04-18T13:39:31.312Z,3.03
2018-04-18T13:41:58.757Z,3.35
2018-04-18T13:44:29.217Z,3.05
2018-04-18T13:46:56.746Z,4.03
2018-04-18T13:49:24.275Z,4.93
2018-04-18T13:51:51.982Z,4.50
2018-04-18T13:54:19.444Z,3.70
2018-04-18T13:56:46.874Z,3.97
2018-04-18T13:59:14.353Z,3.45
2018-04-18T14:01:41.815Z,4.70
2018-04-18T14:04:09.317Z,4.43
2018-04-18T14:06:36.704Z,4.15
2018-04-18T14:09:04.137Z,3.50
2018-04-18T14:11:31.790Z,5.03
2018-04-18T14:13:59.245Z,5.32
2018-04-18T14:16:26.744Z,5.20
2018-04-18T14:18:54.187Z,3.72
2018-04-18T14:21:21.659Z,5.07
2018-04-18T14:23:52.233Z,4.05
2018-04-18T14:26:19.645Z,3.78
2018-04-18T14:28:47.094Z,5.37
2018-04-18T14:31:14.561Z,3.67
2018-04-18T14:33:42.032Z,4.97
2018-04-18T14:36:09.457Z,3.75
2018-04-18T14:38:36.952Z,4.40
2018-04-18T14:41:07.581Z,5.18
2018-04-18T14:43:34.997Z,3.20
2018-04-18T14:46:02.478Z,3.90
2018-04-18T14:48:29.906Z,3.87
2018-04-18T14:50:57.409Z,3.42
2018-04-18T14:53:24.905Z,3.95
2018-04-18T14:55:52.338Z,4.68
2018-04-18T14:58:19.820Z,5.00
2018-04-18T15:00:47.415Z,5.68
2018-04-18T15:03:14.889Z,4.82
2018-04-18T15:05:42.365Z,5.82
2018-04-18T15:08:10.018Z,3.75
2018-04-18T15:10:37.428Z,4.15
2018-04-18T15:13:04.864Z,4.37
2018-04-18T15:15:32.347Z,3.83
2018-04-18T15:17:59.817Z,3.15
2018-04-18T15:20:27.231Z,2.70
2018-04-18T15:22:54.691Z,4.43
2018-04-18T15:25:25.211Z,4.37
2018-04-18T15:27:52.696Z,4.22
2018-04-18T15:30:20.106Z,4.05
2018-04-18T15:32:47.596Z,3.33
2018-04-18T15:35:15.057Z,2.83
2018-04-18T15:37:43.117Z,3.90
2018-04-18T15:40:10.553Z,3.70
2018-04-18T15:42:43.800Z,3.20
2018-04-18T15:45:11.302Z,3.08
2018-04-18T15:47:38.751Z,3.92
2018-04-18T15:50:06.200Z,3.85
2018-04-18T15:52:33.675Z,3.58
2018-04-18T15:55:01.127Z,3.83
2018-04-18T15:57:28.949Z,3.62
2018-04-18T15:59:56.413Z,2.95
2018-04-18T16:02:23.872Z,2.60
2018-04-18T16:04:51.320Z,3.42
2018-04-18T16:07:18.789Z,4.80
2018-04-18T16:09:46.212Z,5.82
2018-04-18T16:12:13.661Z,5.40
2018-04-18T16:14:41.113Z,3.10
2018-04-18T16:17:08.588Z,4.45
2018-04-18T16:19:35.999Z,3.55
2018-04-18T16:22:03.473Z,9.10
2018-04-18T16:24:30.957Z,4.40
2018-04-18T16:26:58.371Z,4.28
2018-04-18T16:29:40.739Z,3.65
2018-04-18T16:32:08.179Z,3.80
2018-04-18T16:34:35.863Z,4.10
2018-04-18T16:37:03.408Z,4.20
2018-04-18T16:39:31.007Z,8.32
2018-04-18T16:41:58.525Z,5.97
2018-04-18T16:44:26.762Z,7.28
2018-04-18T16:46:54.198Z,5.35
2018-04-18T16:49:21.631Z,5.95
2018-04-18T16:51:49.184Z,5.20
2018-04-18T16:54:19.675Z,4.57
2018-04-18T16:56:47.192Z,5.00
2018-04-18T16:59:14.677Z,5.18
2018-04-18T17:01:42.190Z,6.10
2018-04-18T17:04:09.578Z,5.03
2018-04-18T17:06:37.320Z,6.25
2018-04-18T17:09:05.514Z,5.25
2018-04-18T17:11:32.965Z,5.75
2018-04-18T17:14:00.407Z,3.95
2018-04-18T17:16:27.858Z,4.80
2018-04-18T17:18:55.270Z,5.05
2018-04-18T17:21:22.663Z,5.57
2018-04-18T17:23:50.131Z,4.10
2018-04-18T17:26:17.792Z,4.40
2018-04-18T17:28:45.267Z,4.95
2018-04-18T17:31:12.781Z,4.30
2018-04-18T17:33:40.275Z,5.78
2018-04-18T17:36:07.943Z,5.53
2018-04-18T17:38:35.404Z,6.50
2018-04-18T17:41:02.908Z,5.20
2018-04-18T17:43:30.324Z,6.60
2018-04-18T17:45:57.816Z,7.97
2018-04-18T17:48:25.462Z,7.22
2018-04-18T17:50:52.923Z,5.78
2018-04-18T17:53:20.447Z,5.45
2018-04-18T17:55:47.913Z,5.05
2018-04-18T17:58:15.601Z,5.30
2018-04-18T18:00:43.094Z,4.72
2018-04-18T18:03:10.516Z,4.07
2018-04-18T18:05:37.937Z,5.65
2018-04-18T18:08:05.344Z,4.65
2018-04-18T18:10:32.788Z,7.45
2018-04-18T18:13:00.271Z,5.32
2018-04-18T18:15:27.953Z,4.47
2018-04-18T18:17:55.390Z,4.87
2018-04-18T18:20:22.851Z,4.90
2018-04-18T18:22:50.291Z,6.05
2018-04-18T18:25:17.710Z,5.70
2018-04-18T18:27:45.133Z,5.10
2018-04-18T18:30:12.622Z,5.65
2018-04-18T18:32:40.091Z,6.97
2018-04-18T18:35:07.536Z,6.75
2018-04-18T18:37:35.019Z,6.05
2018-04-18T18:40:02.458Z,7.22
2018-04-18T18:42:29.907Z,7.05
2018-04-18T18:44:57.351Z,8.05
2018-04-18T18:47:25.297Z,7.15
2018-04-18T18:49:52.764Z,7.87
2018-04-18T18:52:20.179Z,7.12
2018-04-18T18:54:47.636Z,6.55
2018-04-18T18:57:15.062Z,8.15
2018-04-18T18:59:45.571Z,6.65
2018-04-18T19:02:13.041Z,9.52
2018-04-18T19:04:40.525Z,5.95
2018-04-18T19:07:07.968Z,6.25
2018-04-18T19:09:35.408Z,5.93
2018-04-18T19:12:02.913Z,7.18
2018-04-18T19:14:30.392Z,6.62
2018-04-18T19:16:57.922Z,5.37
2018-04-18T19:19:25.347Z,8.68
2018-04-18T19:21:52.799Z,7.53
2018-04-18T19:24:20.266Z,6.25
2018-04-18T19:26:47.707Z,7.87
2018-04-18T19:29:15.154Z,7.45
2018-04-18T19:31:42.566Z,6.45
2018-04-18T19:34:10.045Z,6.03
2018-04-18T19:36:37.520Z,6.40
2018-04-18T19:39:04.962Z,7.10
2018-04-18T19:41:32.431Z,7.20
2018-04-18T19:43:59.862Z,8.32
2018-04-18T19:46:30.408Z,7.37
2018-04-18T19:48:57.872Z,9.60
2018-04-18T19:51:25.407Z,6.87
2018-04-18T19:53:52.901Z,7.70
2018-04-18T19:56:20.393Z,7.32
2018-04-18T19:58:47.877Z,7.03
2018-04-18T20:01:15.378Z,7.90
2018-04-18T20:03:42.919Z,9.10
2018-04-18T20:06:10.354Z,9.55
2018-04-18T20:08:37.795Z,9.40
2018-04-18T20:11:05.492Z,9.20
2018-04-18T20:13:32.954Z,9.13
2018-04-18T20:16:00.419Z,9.50
2018-04-18T20:18:27.911Z,10.32
2018-04-18T20:20:55.388Z,11.15
2018-04-18T20:23:22.809Z,11.65
2018-04-18T20:25:50.247Z,10.38
2018-04-18T20:28:17.698Z,13.62
2018-04-18T20:30:45.139Z,13.27
2018-04-18T20:33:12.615Z,12.45
2018-04-18T20:35:40.027Z,14.52
2018-04-18T20:38:07.489Z,12.20
2018-04-18T20:40:34.875Z,15.45
2018-04-18T20:43:02.351Z,11.05
2018-04-18T20:48:05.680Z,11.88
2018-04-18T20:50:33.139Z,8.60
2018-04-18T20:53:00.690Z,10.02
2018-04-18T20:55:28.210Z,8.50
2018-04-18T20:57:55.665Z,7.07
2018-04-18T21:00:23.137Z,6.37
2018-04-18T21:02:50.590Z,7.00
2018-04-18T21:05:17.999Z,6.43
2018-04-18T21:07:45.481Z,8.13
2018-04-18T21:10:12.915Z,6.78
2018-04-18T21:12:40.352Z,6.47
2018-04-18T21:15:07.901Z,7.68
2018-04-18T21:17:35.370Z,7.85
2018-04-18T21:20:02.865Z,9.25
2018-04-18T21:22:30.297Z,6.90
2018-04-18T21:24:58.284Z,6.70
2018-04-18T21:27:25.723Z,7.75
2018-04-18T21:32:56.066Z,6.25
2018-04-18T21:35:23.509Z,6.68
2018-04-18T21:37:51.027Z,7.32
2018-04-18T21:40:18.489Z,5.65
2018-04-18T21:42:45.971Z,5.15
2018-04-18T21:45:13.448Z,5.95
2018-04-18T21:47:40.981Z,6.22
2018-04-18T21:50:08.415Z,6.37
2018-04-18T21:52:35.930Z,6.37
2018-04-18T21:55:03.514Z,6.80
2018-04-18T21:57:30.917Z,6.35
2018-04-18T21:59:58.492Z,6.70
2018-04-18T22:02:25.968Z,6.53
2018-04-18T22:04:53.397Z,7.12
2018-04-18T22:07:20.888Z,5.55
2018-04-18T22:09:48.316Z,5.60
2018-04-18T22:12:15.776Z,5.40
2018-04-18T22:14:43.227Z,6.37
2018-04-18T22:17:10.683Z,5.55
2018-04-18T22:19:38.105Z,5.87
2018-04-18T22:22:05.546Z,5.40
2018-04-18T22:24:33.027Z,6.00
2018-04-18T22:27:00.575Z,6.47
2018-04-18T22:29:28.033Z,7.10
2018-04-18T22:31:55.463Z,4.85
2018-04-18T22:34:22.959Z,7.00
2018-04-18T22:36:50.416Z,6.90
2018-04-18T22:39:18.026Z,5.72
2018-04-18T22:41:45.507Z,6.85
2018-04-18T22:44:13.185Z,5.32
2018-04-18T22:46:40.977Z,5.55
2018-04-18T22:49:08.440Z,4.82
2018-04-18T22:51:35.838Z,5.68
2018-04-18T22:54:03.306Z,4.37
2018-04-18T22:56:30.774Z,6.18
2018-04-18T22:58:58.168Z,4.95
2018-04-18T23:01:25.608Z,5.82
2018-04-18T23:03:53.076Z,5.78
2018-04-18T23:06:20.516Z,6.25
2018-04-18T23:08:47.992Z,5.90
2018-04-18T23:11:15.411Z,7.25
2018-04-18T23:13:43.742Z,5.28
2018-04-18T23:16:11.162Z,5.28
2018-04-18T23:18:39.495Z,5.10
2018-04-18T23:21:06.957Z,6.55
2018-04-18T23:23:34.376Z,6.03
2018-04-18T23:26:01.779Z,6.25
2018-04-18T23:28:29.208Z,5.50
2018-04-18T23:30:56.676Z,4.82
2018-04-18T23:33:24.491Z,5.90
2018-04-18T23:35:51.947Z,6.28
2018-04-18T23:38:19.412Z,4.72
2018-04-18T23:40:46.964Z,4.55
2018-04-18T23:43:14.379Z,4.03
2018-04-18T23:45:41.856Z,4.97
2018-04-18T23:48:09.295Z,4.45
2018-04-18T23:50:36.721Z,4.03
2018-04-18T23:53:04.186Z,3.22
2018-04-18T23:55:31.627Z,4.68
2018-04-18T23:57:59.046Z,5.35
